createdAt,value
2023-04-17T00:03:47.463Z,100191.94
2023-04-17T00:08:51.287Z,100195.97
2023-04-17T00:13:56.177Z,100197.75
2023-04-17T00:18:59.642Z,100194.16
2023-04-17T00:24:03.264Z,100189.56
2023-04-17T00:29:08.173Z,100195.63
2023-04-17T00:34:11.480Z,100197.28
2023-04-17T00:39:15.019Z,100200.38
2023-04-17T00:44:19.993Z,100188.47
2023-04-17T00:49:23.832Z,100196.13
2023-04-17T00:54:27.674Z,100181.25
2023-04-17T00:59:33.860Z,100191.72
2023-04-17T01:04:37.345Z,100194.38
2023-04-17T01:09:40.840Z,100190.06
2023-04-17T01:14:46.030Z,100198.63
2023-04-17T01:19:50.247Z,100196.97
2023-04-17T01:24:55.162Z,100192.81
2023-04-17T01:29:58.634Z,100197.81
2023-04-17T01:35:02.282Z,100195.16
2023-04-17T01:40:10.317Z,100206.59
2023-04-17T01:45:14.082Z,100205.75
2023-04-17T01:50:18.034Z,100207.56
2023-04-17T01:55:23.098Z,100195.28
2023-04-17T02:00:26.788Z,100222.34
2023-04-17T02:05:30.598Z,100198.19
2023-04-17T02:10:35.590Z,100218.56
2023-04-17T02:15:39.368Z,100213.56
2023-04-17T02:20:42.992Z,100207.69
2023-04-17T02:25:47.870Z,100205.38
2023-04-17T02:30:51.327Z,100211.56
2023-04-17T02:35:54.844Z,100202.31
2023-04-17T02:41:00.088Z,100196.03
2023-04-17T02:46:03.849Z,100207.56
2023-04-17T02:51:07.617Z,100196.50
2023-04-17T02:56:12.865Z,100197.53
2023-04-17T03:01:16.432Z,100193.19
2023-04-17T03:06:20.205Z,100190.69
2023-04-17T03:11:25.524Z,100208.94
2023-04-17T03:16:29.109Z,100207.94
2023-04-17T03:21:32.906Z,100225.94
2023-04-17T03:26:37.828Z,100224.13
2023-04-17T03:31:41.573Z,100222.69
2023-04-17T03:36:45.270Z,100228.56
2023-04-17T03:41:50.289Z,100206.25
2023-04-17T03:46:53.940Z,100216.72
2023-04-17T03:51:57.770Z,100229.59
2023-04-17T03:57:03.262Z,100232.13
2023-04-17T04:02:07.248Z,100217.13
2023-04-17T04:07:11.139Z,100215.72
2023-04-17T04:12:16.214Z,100220.31
2023-04-17T04:17:19.448Z,100228.44
2023-04-17T04:22:22.997Z,100220.34
2023-04-17T04:27:32.947Z,100220.38
2023-04-17T04:32:37.741Z,100225.28
2023-04-17T04:37:43.137Z,100223.16
2023-04-17T04:42:49.732Z,100225.78
2023-04-17T04:47:53.540Z,100228.34
2023-04-17T04:52:57.117Z,100241.13
2023-04-17T04:58:02.163Z,100237.09
2023-04-17T05:03:06.756Z,100231.09
2023-04-17T05:08:10.400Z,100225.91
2023-04-17T05:13:15.242Z,100231.91
2023-04-17T05:18:18.572Z,100232.88
2023-04-17T05:23:23.338Z,100236.78
2023-04-17T05:28:29.907Z,100235.63
2023-04-17T05:33:33.456Z,100246.34
2023-04-17T05:38:37.021Z,100245.78
2023-04-17T05:43:42.912Z,100239.97
2023-04-17T05:48:46.400Z,100239.84
2023-04-17T05:53:50.000Z,100239.63
2023-04-17T05:58:54.978Z,100245.19
2023-04-17T06:03:58.473Z,100250.66
2023-04-17T06:09:02.744Z,100241.97
2023-04-17T06:14:07.760Z,100245.69
2023-04-17T06:19:11.677Z,100251.00
2023-04-17T06:24:15.506Z,100257.06
2023-04-17T06:29:20.606Z,100249.44
2023-04-17T06:34:24.249Z,100253.78
2023-04-17T06:39:28.018Z,100250.25
2023-04-17T06:44:32.894Z,100252.78
2023-04-17T06:49:36.303Z,100262.28
2023-04-17T06:54:39.854Z,100258.09
2023-04-17T06:59:44.916Z,100265.06
2023-04-17T07:04:48.519Z,100257.47
2023-04-17T07:09:52.294Z,100259.41
2023-04-17T07:14:57.288Z,100261.25
2023-04-17T07:20:01.252Z,100265.66
2023-04-17T07:25:06.921Z,100267.19
2023-04-17T07:30:12.830Z,100260.59
2023-04-17T07:35:16.630Z,100266.72
2023-04-17T07:40:20.425Z,100272.19
2023-04-17T07:45:26.333Z,100265.28
2023-04-17T07:50:30.217Z,100257.53
2023-04-17T07:55:34.029Z,100260.19
2023-04-17T08:00:39.154Z,100253.31
2023-04-17T08:05:42.665Z,100259.34
2023-04-17T08:10:46.732Z,100265.47
2023-04-17T08:15:52.313Z,100258.25
2023-04-17T08:20:55.926Z,100229.41
2023-04-17T08:25:59.877Z,100248.47
2023-04-17T08:31:05.301Z,100246.00
2023-04-17T08:36:10.700Z,100237.19
2023-04-17T08:41:19.831Z,100240.16
2023-04-17T08:46:25.967Z,100243.56
2023-04-17T08:51:29.574Z,100241.75
2023-04-17T08:56:33.071Z,100241.63
2023-04-17T09:01:38.181Z,100236.72
2023-04-17T09:06:52.845Z,100242.84
2023-04-17T09:12:12.284Z,100234.09
2023-04-17T09:17:19.820Z,100232.00
2023-04-17T09:22:24.689Z,100230.50
2023-04-17T09:27:29.902Z,100221.56
2023-04-17T09:32:35.910Z,100223.63
2023-04-17T09:37:51.072Z,100216.81
2023-04-17T09:42:57.220Z,100202.34
2023-04-17T09:48:03.001Z,100211.00
2023-04-17T09:53:08.370Z,100204.03
2023-04-17T09:58:12.586Z,100200.56
2023-04-17T10:03:18.625Z,100195.63
2023-04-17T10:08:23.404Z,100189.88
2023-04-17T10:13:29.973Z,100199.78
2023-04-17T10:18:35.126Z,100195.81
2023-04-17T10:23:40.155Z,100193.63
2023-04-17T10:28:50.657Z,100190.91
2023-04-17T10:33:55.893Z,100194.25
2023-04-17T10:39:14.594Z,100204.84
2023-04-17T10:44:19.652Z,100204.84
2023-04-17T10:49:24.795Z,100198.13
2023-04-17T10:54:28.470Z,100199.22
2023-04-17T10:59:32.985Z,100188.38
2023-04-17T11:04:37.742Z,100194.59
2023-04-17T11:09:41.660Z,100188.78
2023-04-17T11:14:45.247Z,100183.81
2023-04-17T11:19:53.431Z,100188.69
2023-04-17T11:24:56.917Z,100173.81
2023-04-17T11:30:00.588Z,100165.00
2023-04-17T11:35:06.451Z,100166.31
2023-04-17T11:40:11.703Z,100163.38
2023-04-17T11:45:15.830Z,100164.06
2023-04-17T11:50:21.117Z,100152.44
2023-04-17T11:55:30.449Z,100152.81
2023-04-17T12:00:34.911Z,100134.38
2023-04-17T12:05:39.981Z,100140.53
2023-04-17T12:10:45.814Z,100147.06
2023-04-17T12:15:49.476Z,100135.13
2023-04-17T12:20:55.085Z,100142.28
2023-04-17T12:25:58.950Z,100137.38
2023-04-17T12:31:02.801Z,100109.50
2023-04-17T12:36:09.202Z,100134.88
2023-04-17T12:41:13.251Z,100134.13
2023-04-17T12:46:17.762Z,100123.94
2023-04-17T12:51:22.794Z,100122.16
2023-04-17T12:56:26.946Z,100123.31
2023-04-17T13:01:30.803Z,100123.75
2023-04-17T13:06:35.826Z,100119.66
2023-04-17T13:11:39.547Z,100119.38
2023-04-17T13:16:43.074Z,100126.56
2023-04-17T13:21:48.233Z,100128.13
2023-04-17T13:26:51.860Z,100121.56
2023-04-17T13:31:55.394Z,100118.66
2023-04-17T13:37:00.750Z,100119.63
2023-04-17T13:42:04.290Z,100113.81
2023-04-17T13:47:08.211Z,100113.28
2023-04-17T13:52:13.173Z,100114.53
2023-04-17T13:57:18.611Z,100118.91
2023-04-17T14:02:22.373Z,100113.63
2023-04-17T14:07:28.610Z,100108.91
2023-04-17T14:12:32.632Z,100105.94
2023-04-17T14:17:43.304Z,100114.28
2023-04-17T14:22:48.488Z,100102.47
2023-04-17T14:27:52.776Z,100103.00
2023-04-17T14:32:56.630Z,100103.50
2023-04-17T14:38:05.080Z,100102.69
2023-04-17T14:43:08.738Z,100099.66
2023-04-17T14:48:12.860Z,100092.88
2023-04-17T14:53:19.467Z,100097.38
2023-04-17T14:58:25.108Z,100096.88
2023-04-17T15:03:28.935Z,100097.06
2023-04-17T15:08:34.669Z,100099.72
2023-04-17T15:13:39.666Z,100103.72
2023-04-17T15:18:43.569Z,100100.38
2023-04-17T15:23:48.631Z,100099.50
2023-04-17T15:28:52.327Z,100100.78
2023-04-17T15:33:56.045Z,100103.91
2023-04-17T15:39:01.632Z,100105.31
2023-04-17T15:44:06.106Z,100101.91
2023-04-17T15:49:09.880Z,100109.78
2023-04-17T15:54:15.137Z,100106.41
2023-04-17T15:59:18.849Z,100112.53
2023-04-17T16:04:22.861Z,100114.31
2023-04-17T16:09:28.203Z,100112.63
2023-04-17T16:14:31.875Z,100110.16
2023-04-17T16:19:35.631Z,100116.28
2023-04-17T16:24:40.892Z,100115.44
2023-04-17T16:29:44.658Z,100105.03
2023-04-17T16:34:48.803Z,100119.03
2023-04-17T16:39:54.011Z,100113.88
2023-04-17T16:44:57.566Z,100121.78
2023-04-17T16:50:01.157Z,100126.13
2023-04-17T16:55:06.841Z,100117.41
2023-04-17T17:00:12.280Z,100112.25
2023-04-17T17:05:16.203Z,100123.56
2023-04-17T17:10:21.557Z,100131.44
2023-04-17T17:15:25.321Z,100133.22
2023-04-17T17:20:28.913Z,100137.59
2023-04-17T17:25:33.987Z,100131.50
2023-04-17T17:30:37.580Z,100135.88
2023-04-17T17:35:41.239Z,100129.78
2023-04-17T17:40:46.582Z,100128.91
2023-04-17T17:45:50.664Z,100128.94
2023-04-17T17:50:55.600Z,100135.03
2023-04-17T17:56:00.681Z,100134.19
2023-04-17T18:01:04.797Z,100134.16
2023-04-17T18:06:08.671Z,100140.28
2023-04-17T18:11:14.449Z,100144.66
2023-04-17T18:16:18.248Z,100135.97
2023-04-17T18:21:22.110Z,100124.69
2023-04-17T18:26:27.021Z,100131.66
2023-04-17T18:31:30.645Z,100131.63
2023-04-17T18:36:34.143Z,100129.94
2023-04-17T18:41:39.146Z,100122.06
2023-04-17T18:46:42.723Z,100121.22
2023-04-17T18:51:48.053Z,100121.22
2023-04-17T18:56:52.995Z,100081.22
2023-04-17T19:01:56.572Z,100102.94
2023-04-17T19:07:02.177Z,100084.56
2023-04-17T19:12:07.789Z,100072.38
2023-04-17T19:17:11.493Z,100088.03
2023-04-17T19:22:16.097Z,100097.63
2023-04-17T19:27:23.402Z,100088.94
2023-04-17T19:32:28.650Z,100095.91
2023-04-17T19:37:33.463Z,100088.97
2023-04-17T19:42:38.342Z,100082.88
2023-04-17T19:47:41.810Z,100079.38
2023-04-17T19:52:45.565Z,100082.81
2023-04-17T19:57:51.154Z,100081.97
2023-04-17T20:02:54.761Z,100086.34
2023-04-17T20:07:58.552Z,100082.81
2023-04-17T20:13:04.017Z,100085.44
2023-04-17T20:18:08.570Z,100083.72
2023-04-17T20:23:12.548Z,100087.19
2023-04-17T20:28:17.524Z,100077.63
2023-04-17T20:33:21.250Z,100077.63
2023-04-17T20:38:24.873Z,100056.78
2023-04-17T20:43:29.762Z,100062.00
2023-04-17T20:48:32.985Z,100062.84
2023-04-17T20:53:36.438Z,100062.81
2023-04-17T20:58:41.501Z,100060.19
2023-04-17T21:03:45.336Z,100061.94
2023-04-17T21:08:48.989Z,100074.97
2023-04-17T21:13:54.646Z,100070.63
2023-04-17T21:18:58.204Z,100063.63
2023-04-17T21:24:01.916Z,100063.63
2023-04-17T21:29:07.016Z,100061.94
2023-04-17T21:34:11.131Z,100067.97
2023-04-17T21:39:14.810Z,100061.81
2023-04-17T21:44:19.748Z,100062.66
2023-04-17T21:49:23.817Z,100055.69
2023-04-17T21:54:28.086Z,100055.66
2023-04-17T21:59:33.138Z,100054.84
2023-04-17T22:04:36.752Z,100044.41
2023-04-17T22:09:40.424Z,100053.97
2023-04-17T22:14:45.413Z,100059.22
2023-04-17T22:19:48.914Z,100042.69
2023-04-17T22:24:52.968Z,100053.09
2023-04-17T22:29:57.865Z,100049.63
2023-04-17T22:35:01.167Z,100053.09
2023-04-17T22:40:05.505Z,100055.66
2023-04-17T22:45:10.782Z,100043.50
2023-04-17T22:50:14.466Z,100039.19
2023-04-17T22:55:18.223Z,100046.97
2023-04-17T23:00:24.122Z,100045.19
2023-04-17T23:05:27.902Z,100041.63
2023-04-17T23:10:32.725Z,100043.13
2023-04-17T23:15:37.819Z,100043.84
2023-04-17T23:20:41.366Z,100041.09
2023-04-17T23:25:44.790Z,100042.91
2023-04-17T23:30:49.759Z,100041.28
2023-04-17T23:35:52.942Z,100033.47
2023-04-17T23:40:56.348Z,100024.78
2023-04-17T23:46:01.293Z,100027.50
2023-04-17T23:51:05.866Z,100030.97
2023-04-17T23:56:09.470Z,99994.44
